»·PEaware :: TEXAN15 KRND-KRND

TEXAN15 :: KRND-KRND

FLIGHT INFORMATION

Flight Status: Arrived
Operator: Unknown
More flights by this operator :: More flights under this callsign
Pilot: Indie I. (23336)
Aircraft: BEECH AIRCRAFT T-6A TEXAN
(TEX2)
More flights by this aircraft type
Origin: KRND Randolph AFB
United States
Destination: KRND Randolph AFB
United States
More flights between these airports :: More routes between these airports
Route: PATTERNS
File this flight plan on PilotEdge
Remarks: +CW / N / A
Altitude:
(Current/Filed)
1,800ft
Speed:
(Current/Filed)
227kts
Departed: 20-Feb-20 12:17 PM
Arrived: 20-Feb-20 12:37 PM
Distance/Time
Traveled:
3nm/0:19
Distance/Time
To Go:
Arrived

Flight Plot

Page will automatically refresh every two minutes.

Flight plan parsing failed; only flown route is shown


Map Options




Map Legend


Flown Route
Filed Route
Departure Airport
Arrival Airport
Navaid (VOR, NDB)
Fix

Horizontal Profiles

Position Reports

Time Latitude Longitude Heading Altitude Ground
Speed
20-Feb-20 12:01 29.534858 -98.290454 138 765ft 0kts
20-Feb-20 12:02 29.534857 -98.290454 138 765ft 0kts
20-Feb-20 12:03 29.534781 -98.291035 284 765ft 9kts
20-Feb-20 12:04 29.534980 -98.291673 268 765ft 0kts
20-Feb-20 12:05 29.534980 -98.291676 268 765ft 0kts
20-Feb-20 12:06 29.534980 -98.291679 268 765ft 0kts
20-Feb-20 12:07 29.534980 -98.291682 268 765ft 0kts
20-Feb-20 12:08 29.534980 -98.291685 268 765ft 0kts
20-Feb-20 12:09 29.534980 -98.291688 268 765ft 0kts
20-Feb-20 12:10 29.534980 -98.291690 268 765ft 0kts
20-Feb-20 12:11 29.534980 -98.291693 268 765ft 0kts
20-Feb-20 12:12 29.534980 -98.291696 268 765ft 0kts
20-Feb-20 12:13 29.534980 -98.291699 268 765ft 0kts
20-Feb-20 12:14 29.534979 -98.291761 269 765ft 0kts
20-Feb-20 12:15 29.534802 -98.292273 241 765ft 23kts
20-Feb-20 12:16 29.522629 -98.285221 150 913ft 137kts
20-Feb-20 12:17 29.501241 -98.307920 325 1791ft 201kts
20-Feb-20 12:18 29.549244 -98.342862 329 1912ft 213kts
20-Feb-20 12:19 29.549361 -98.303584 144 1894ft 188kts
20-Feb-20 12:20 29.537875 -98.312214 332 1827ft 138kts
20-Feb-20 12:21 29.534846 -98.293205 150 790ft 107kts
20-Feb-20 12:22 29.503650 -98.284369 241 1567ft 202kts
20-Feb-20 12:23 29.531557 -98.330960 330 1866ft 227kts
20-Feb-20 12:24 29.561882 -98.313838 122 1860ft 199kts
20-Feb-20 12:25 29.528636 -98.306522 326 1766ft 182kts
20-Feb-20 12:26 29.540964 -98.297309 148 1017ft 113kts
20-Feb-20 12:28 29.514539 -98.279825 150 1255ft 166kts
20-Feb-20 12:29 29.514157 -98.319372 333 1848ft 210kts
20-Feb-20 12:30 29.563161 -98.335914 58 1856ft 199kts
20-Feb-20 12:31 29.534033 -98.292528 149 1858ft 199kts
20-Feb-20 12:32 29.504205 -98.311636 319 1859ft 217kts
20-Feb-20 12:33 29.558673 -98.347426 333 1824ft 224kts
20-Feb-20 12:34 29.589368 -98.338118 114 1391ft 137kts
20-Feb-20 12:35 29.565543 -98.313436 151 1353ft 105kts
20-Feb-20 12:36 29.540428 -98.296877 150 943ft 108kts
20-Feb-20 12:37 29.527129 -98.287955 138 765ft 29kts
20-Feb-20 12:38 29.527118 -98.285541 75 765ft 0kts
20-Feb-20 12:39 29.529691 -98.286800 330 765ft 30kts
20-Feb-20 12:40 29.533776 -98.289867 318 765ft 29kts
20-Feb-20 12:41 29.534758 -98.291699 275 765ft 0kts
20-Feb-20 12:42 29.534758 -98.291845 266 765ft 0kts
20-Feb-20 12:43 29.533609 -98.292295 150 765ft 44kts
20-Feb-20 12:44 29.502618 -98.283615 241 1355ft 207kts
20-Feb-20 12:45 29.530011 -98.329488 328 1880ft 214kts
20-Feb-20 12:46 29.581739 -98.360585 5 1504ft 185kts
20-Feb-20 12:47 29.580391 -98.323866 135 1329ft 129kts
20-Feb-20 12:48 29.552694 -98.305010 148 1110ft 117kts
20-Feb-20 12:48 29.531322 -98.290902 150 766ft 83kts
20-Feb-20 12:50 29.496651 -98.301391 260 1771ft 211kts
20-Feb-20 12:51 29.544142 -98.338234 333 1875ft 217kts

Navigation Log

Ident Type
Flight plan parsing failed, navigation log unavailable